Nashville, Tennessee
Traffic Map
Current Weather Conditions
Nashville, Tennessee
Overcast
Overcast
61°
Feels Like: 61°
Wind Chill: 61° Ceiling: 18000
Heat Index: 61° Visibility: 10mi
Dew Point: 33° Wind: 17mph
Humidity: 35% Direction: 170° (S)
Pressure: 29.91in Gusts: 0mph
Raw Report DataKBNA 180153Z 17015KT 10SM SCT060 OVC180 16/01 A2991 RMK AO2 SLP130 T01610006
Traffic Incident Summary
Active as of:
Severity:
Category:
InformationThere was an issue retrieving the traffic information for this location. Please try a different location or try again shortly.
Advertisements